createdAt,value
2022-12-20T00:00:44.941Z,95.46
2022-12-20T00:01:45.036Z,95.46
2022-12-20T00:02:44.936Z,95.04
2022-12-20T00:03:44.932Z,94.94
2022-12-20T00:04:44.885Z,94.84
2022-12-20T00:05:44.925Z,94.89
2022-12-20T00:06:44.882Z,94.84
2022-12-20T00:07:44.910Z,94.58
2022-12-20T00:08:44.849Z,94.58
2022-12-20T00:09:44.837Z,94.58
2022-12-20T00:10:44.847Z,94.58
2022-12-20T00:11:44.837Z,94.58
2022-12-20T00:12:44.805Z,94.27
2022-12-20T00:13:44.809Z,94.06
2022-12-20T00:14:44.781Z,94.06
2022-12-20T00:15:45.112Z,94.06
2022-12-20T00:16:44.908Z,93.96
2022-12-20T00:17:44.792Z,94.06
2022-12-20T00:18:44.730Z,94.17
2022-12-20T00:19:44.797Z,94.27
2022-12-20T00:20:44.757Z,94.27
2022-12-20T00:21:45.062Z,94.27
2022-12-20T00:22:44.694Z,94.37
2022-12-20T00:23:44.704Z,94.37
2022-12-20T00:24:44.670Z,94.48
2022-12-20T00:25:44.690Z,94.48
2022-12-20T00:26:44.668Z,94.48
2022-12-20T00:27:44.664Z,94.27
2022-12-20T00:28:44.645Z,94.37
2022-12-20T00:29:44.653Z,94.17
2022-12-20T00:30:44.621Z,94.17
2022-12-20T00:31:44.720Z,94.17
2022-12-20T00:32:44.645Z,94.17
2022-12-20T00:33:44.593Z,94.17
2022-12-20T00:34:44.603Z,94.27
2022-12-20T00:35:44.581Z,94.06
2022-12-20T00:36:44.592Z,94.27
2022-12-20T00:37:44.529Z,94.27
2022-12-20T00:38:44.577Z,94.27
2022-12-20T00:39:44.530Z,94.37
2022-12-20T00:40:44.513Z,94.27
2022-12-20T00:41:44.513Z,94.27
2022-12-20T00:42:44.481Z,94.37
2022-12-20T00:43:44.523Z,94.48
2022-12-20T00:44:44.481Z,94.37
2022-12-20T00:45:44.516Z,94.27
2022-12-20T00:46:44.511Z,94.17
2022-12-20T00:47:44.465Z,94.27
2022-12-20T00:48:44.431Z,94.06
2022-12-20T00:49:44.412Z,94.17
2022-12-20T00:50:44.419Z,93.96
2022-12-20T00:51:44.400Z,94.06
2022-12-20T00:52:44.416Z,93.96
2022-12-20T00:53:44.374Z,93.96
2022-12-20T00:54:44.351Z,93.85
2022-12-20T00:55:44.416Z,93.85
2022-12-20T00:56:44.387Z,93.75
2022-12-20T00:57:44.367Z,93.65
2022-12-20T00:58:44.334Z,93.75
2022-12-20T00:59:44.404Z,93.54
2022-12-20T01:00:45.991Z,93.54
2022-12-20T01:01:44.528Z,93.54
2022-12-20T01:02:44.516Z,93.54
2022-12-20T01:03:44.331Z,93.65
2022-12-20T01:04:44.262Z,93.65
2022-12-20T01:05:44.257Z,93.54
2022-12-20T01:06:44.238Z,93.54
2022-12-20T01:07:44.232Z,93.54
2022-12-20T01:08:44.216Z,93.54
2022-12-20T01:09:44.303Z,93.44
2022-12-20T01:10:44.212Z,93.54
2022-12-20T01:11:44.188Z,93.44
2022-12-20T01:12:44.198Z,93.44
2022-12-20T01:13:44.196Z,93.54
2022-12-20T01:14:44.165Z,93.54
2022-12-20T01:15:44.204Z,93.54
2022-12-20T01:16:44.260Z,93.23
2022-12-20T01:17:44.125Z,93.23
2022-12-20T01:18:44.131Z,93.33
2022-12-20T01:19:44.115Z,93.23
2022-12-20T01:20:44.124Z,93.23
2022-12-20T01:21:44.092Z,93.29
2022-12-20T01:22:47.670Z,93.02
2022-12-20T01:23:44.057Z,93.02
2022-12-20T01:24:44.061Z,92.88
2022-12-20T01:25:44.124Z,92.88
2022-12-20T01:26:44.043Z,92.78
2022-12-20T01:27:44.012Z,92.93
2022-12-20T01:28:44.016Z,92.98
2022-12-20T01:29:44.029Z,92.98
2022-12-20T01:30:44.021Z,92.78
2022-12-20T01:31:44.046Z,92.57
2022-12-20T01:32:43.987Z,92.78
2022-12-20T01:33:43.975Z,92.88
2022-12-20T01:34:43.956Z,92.78
2022-12-20T01:35:43.983Z,92.68
2022-12-20T01:36:44.028Z,92.78
2022-12-20T01:37:43.941Z,92.78
2022-12-20T01:38:43.958Z,92.78
2022-12-20T01:39:43.888Z,92.88
2022-12-20T01:40:43.931Z,92.68
2022-12-20T01:41:43.868Z,92.68
2022-12-20T01:42:43.874Z,92.78
2022-12-20T01:43:43.862Z,92.78
2022-12-20T01:44:43.855Z,92.57
2022-12-20T01:45:43.920Z,92.78
2022-12-20T01:46:43.866Z,92.68
2022-12-20T01:47:43.824Z,92.47
2022-12-20T01:48:43.817Z,92.57
2022-12-20T01:49:43.794Z,92.47
2022-12-20T01:50:43.871Z,92.57
2022-12-20T01:51:43.803Z,92.68
2022-12-20T01:52:43.800Z,92.68
2022-12-20T01:53:43.748Z,92.78
2022-12-20T01:54:43.777Z,92.78
2022-12-20T01:55:43.775Z,92.88
2022-12-20T01:56:43.780Z,92.98
2022-12-20T01:57:43.724Z,92.78
2022-12-20T01:58:43.756Z,92.68
2022-12-20T01:59:43.683Z,92.68
2022-12-20T02:00:43.857Z,92.68
2022-12-20T02:01:43.806Z,92.68
2022-12-20T02:02:43.853Z,92.68
2022-12-20T02:03:43.740Z,92.68
2022-12-20T02:04:43.678Z,92.68
2022-12-20T02:05:43.655Z,92.57
2022-12-20T02:06:43.625Z,92.57
2022-12-20T02:07:43.620Z,92.57
2022-12-20T02:08:43.617Z,92.68
2022-12-20T02:09:43.654Z,92.47
2022-12-20T02:10:43.638Z,92.47
2022-12-20T02:11:43.577Z,92.47
2022-12-20T02:12:43.571Z,92.36
2022-12-20T02:13:43.558Z,92.26
2022-12-20T02:14:43.645Z,92.36
2022-12-20T02:15:43.541Z,92.36
2022-12-20T02:16:43.604Z,92.26
2022-12-20T02:17:43.521Z,92.16
2022-12-20T02:18:43.531Z,92.05
2022-12-20T02:19:43.542Z,92.05
2022-12-20T02:20:43.503Z,91.95
2022-12-20T02:21:43.478Z,92.05
2022-12-20T02:22:43.475Z,91.91
2022-12-20T02:23:43.462Z,91.85
2022-12-20T02:24:43.473Z,91.80
2022-12-20T02:25:43.448Z,91.80
2022-12-20T02:26:43.428Z,91.91
2022-12-20T02:27:43.422Z,91.91
2022-12-20T02:28:43.430Z,91.80
2022-12-20T02:29:43.390Z,91.70
2022-12-20T02:30:43.453Z,91.80
2022-12-20T02:31:43.569Z,91.91
2022-12-20T02:32:43.366Z,91.70
2022-12-20T02:33:43.348Z,91.70
2022-12-20T02:34:43.398Z,91.60
2022-12-20T02:35:43.351Z,91.49
2022-12-20T02:36:43.330Z,91.49
2022-12-20T02:37:43.361Z,91.60
2022-12-20T02:38:43.329Z,91.49
2022-12-20T02:39:43.294Z,91.49
2022-12-20T02:40:43.376Z,91.49
2022-12-20T02:41:43.263Z,91.49
2022-12-20T02:42:43.258Z,91.39
2022-12-20T02:43:43.291Z,91.39
2022-12-20T02:44:43.306Z,91.39
2022-12-20T02:45:43.280Z,91.18
2022-12-20T02:46:43.223Z,91.39
2022-12-20T02:47:43.229Z,91.18
2022-12-20T02:48:43.232Z,91.18
2022-12-20T02:49:43.193Z,90.97
2022-12-20T02:50:43.223Z,90.87
2022-12-20T02:51:43.231Z,90.87
2022-12-20T02:52:43.145Z,90.97
2022-12-20T02:53:43.297Z,90.97
2022-12-20T02:54:43.145Z,91.08
2022-12-20T02:55:43.139Z,90.87
2022-12-20T02:56:43.175Z,90.87
2022-12-20T02:57:43.119Z,90.66
2022-12-20T02:58:43.099Z,90.87
2022-12-20T02:59:43.138Z,90.62
2022-12-20T03:00:43.111Z,90.41
2022-12-20T03:01:43.155Z,90.52
2022-12-20T03:02:43.149Z,90.52
2022-12-20T03:03:43.110Z,90.52
2022-12-20T03:04:43.021Z,90.52
2022-12-20T03:05:43.023Z,90.52
2022-12-20T03:06:43.005Z,90.41
2022-12-20T03:07:43.032Z,90.52
2022-12-20T03:08:42.993Z,90.52
2022-12-20T03:09:43.010Z,90.41
2022-12-20T03:10:43.009Z,90.20
2022-12-20T03:11:42.953Z,90.20
2022-12-20T03:12:42.951Z,90.20
2022-12-20T03:13:42.952Z,90.20
2022-12-20T03:14:42.917Z,90.20
2022-12-20T03:15:42.930Z,90.20
2022-12-20T03:16:42.935Z,90.20
2022-12-20T03:17:42.882Z,90.00
2022-12-20T03:18:42.889Z,90.10
2022-12-20T03:19:42.892Z,90.10
2022-12-20T03:20:42.910Z,90.00
2022-12-20T03:21:42.857Z,90.10
2022-12-20T03:22:42.852Z,90.20
2022-12-20T03:23:42.840Z,90.10
2022-12-20T03:24:42.824Z,90.10
2022-12-20T03:25:42.818Z,89.79
2022-12-20T03:26:42.840Z,90.00
2022-12-20T03:27:42.814Z,90.00
2022-12-20T03:28:42.770Z,90.10
2022-12-20T03:29:42.759Z,89.69
2022-12-20T03:30:42.782Z,89.65
2022-12-20T03:31:42.756Z,89.75
2022-12-20T03:32:42.721Z,89.86
2022-12-20T03:33:42.710Z,89.75
2022-12-20T03:34:42.706Z,89.75
2022-12-20T03:35:42.697Z,89.69
2022-12-20T03:36:42.751Z,89.65
2022-12-20T03:37:42.687Z,89.65
2022-12-20T03:38:42.669Z,89.75
2022-12-20T03:39:42.662Z,89.86
2022-12-20T03:40:42.705Z,89.86
2022-12-20T03:41:42.689Z,89.65
2022-12-20T03:42:42.662Z,89.54
2022-12-20T03:43:42.608Z,89.54
2022-12-20T03:44:42.690Z,89.54
2022-12-20T03:45:42.606Z,89.44
2022-12-20T03:46:42.708Z,89.34
2022-12-20T03:47:42.654Z,89.44
2022-12-20T03:48:42.579Z,89.13
2022-12-20T03:49:42.573Z,89.23
2022-12-20T03:50:42.546Z,89.44
2022-12-20T03:51:42.567Z,89.23
2022-12-20T03:52:42.527Z,89.34
2022-12-20T03:53:42.582Z,89.34
2022-12-20T03:54:42.512Z,89.23
2022-12-20T03:55:45.308Z,89.34
2022-12-20T03:56:42.514Z,89.54
2022-12-20T03:57:42.465Z,89.34
2022-12-20T03:58:42.465Z,89.23
2022-12-20T03:59:42.443Z,89.34
2022-12-20T04:00:42.521Z,89.65
2022-12-20T04:01:42.550Z,89.44
2022-12-20T04:02:42.681Z,89.44
2022-12-20T04:03:42.456Z,89.44
2022-12-20T04:04:42.395Z,89.34
2022-12-20T04:05:42.399Z,89.44
2022-12-20T04:06:42.459Z,89.34
2022-12-20T04:07:42.395Z,89.34
2022-12-20T04:08:42.347Z,89.34
2022-12-20T04:09:42.363Z,89.23
2022-12-20T04:10:42.339Z,89.34
2022-12-20T04:11:42.378Z,89.34
2022-12-20T04:12:42.377Z,89.44
2022-12-20T04:13:42.360Z,89.34
2022-12-20T04:14:42.352Z,89.23
2022-12-20T04:15:42.468Z,89.23
2022-12-20T04:16:42.462Z,89.34
2022-12-20T04:17:42.352Z,89.34
2022-12-20T04:18:42.296Z,89.34
2022-12-20T04:19:42.242Z,89.23
2022-12-20T04:20:42.309Z,89.44
2022-12-20T04:21:42.363Z,89.44
2022-12-20T04:22:42.235Z,89.44
2022-12-20T04:23:42.227Z,89.44
2022-12-20T04:24:42.204Z,89.54
2022-12-20T04:25:42.207Z,89.54
2022-12-20T04:26:42.181Z,89.54
2022-12-20T04:27:42.154Z,89.54
2022-12-20T04:28:42.176Z,89.65
2022-12-20T04:29:42.135Z,89.75
2022-12-20T04:30:42.168Z,89.86
2022-12-20T04:31:42.192Z,89.96
2022-12-20T04:32:42.114Z,90.06
2022-12-20T04:33:42.117Z,90.16
2022-12-20T04:34:42.089Z,90.06
2022-12-20T04:35:42.072Z,90.31
2022-12-20T04:36:42.145Z,90.31
2022-12-20T04:37:42.069Z,90.41
2022-12-20T04:38:42.069Z,90.52
2022-12-20T04:39:42.069Z,90.41
2022-12-20T04:40:42.041Z,90.41
2022-12-20T04:41:42.051Z,90.41
2022-12-20T04:42:42.019Z,90.52
2022-12-20T04:43:42.007Z,90.41
2022-12-20T04:44:41.991Z,90.41
2022-12-20T04:45:41.986Z,90.41
2022-12-20T04:46:42.047Z,90.52
2022-12-20T04:47:41.947Z,90.52
2022-12-20T04:48:59.208Z,90.41
2022-12-20T04:49:41.952Z,90.52
2022-12-20T04:50:41.946Z,90.52
2022-12-20T04:51:41.939Z,90.62
2022-12-20T04:52:47.399Z,90.62
2022-12-20T04:53:41.916Z,90.62
2022-12-20T04:54:41.952Z,90.62
2022-12-20T04:55:41.881Z,90.52
2022-12-20T04:56:41.907Z,90.52
2022-12-20T04:57:41.848Z,90.52
2022-12-20T04:58:41.836Z,90.62
2022-12-20T04:59:41.859Z,90.62
2022-12-20T05:00:41.846Z,90.52
2022-12-20T05:01:42.021Z,90.62
2022-12-20T05:02:42.048Z,90.62
2022-12-20T05:03:41.985Z,90.62
2022-12-20T05:04:41.799Z,90.62
2022-12-20T05:05:41.802Z,90.62
2022-12-20T05:06:41.777Z,90.62
2022-12-20T05:07:41.739Z,90.72
2022-12-20T05:08:41.769Z,90.72
2022-12-20T05:09:41.724Z,90.72
2022-12-20T05:10:41.713Z,90.62
2022-12-20T05:11:41.755Z,90.72
2022-12-20T05:12:41.730Z,90.62
2022-12-20T05:13:41.703Z,90.52
2022-12-20T05:14:41.711Z,90.62
2022-12-20T05:15:41.731Z,90.62
2022-12-20T05:16:41.772Z,90.72
2022-12-20T05:17:41.655Z,90.83
2022-12-20T05:18:48.158Z,90.83
2022-12-20T05:19:41.659Z,90.83
2022-12-20T05:20:41.671Z,90.72
2022-12-20T05:21:41.647Z,90.62
2022-12-20T05:22:41.605Z,90.62
2022-12-20T05:23:41.615Z,90.72
2022-12-20T05:24:41.575Z,90.62
2022-12-20T05:25:41.557Z,90.52
2022-12-20T05:26:41.611Z,90.62
2022-12-20T05:27:41.567Z,90.52
2022-12-20T05:28:41.570Z,90.47
2022-12-20T05:29:41.527Z,90.52
2022-12-20T05:30:41.520Z,90.26
2022-12-20T05:31:41.592Z,90.31
2022-12-20T05:32:41.507Z,90.37
2022-12-20T05:33:41.487Z,90.37
2022-12-20T05:34:41.636Z,90.37
2022-12-20T05:35:41.484Z,90.52
2022-12-20T05:36:41.492Z,90.37
2022-12-20T05:37:41.511Z,90.47
2022-12-20T05:38:41.419Z,90.47
2022-12-20T05:39:41.426Z,90.47
2022-12-20T05:40:41.446Z,90.47
2022-12-20T05:41:41.413Z,90.47
2022-12-20T05:42:41.390Z,90.26
2022-12-20T05:43:41.396Z,90.37
2022-12-20T05:44:41.364Z,90.47
2022-12-20T05:45:41.374Z,90.47
2022-12-20T05:46:41.389Z,90.47
2022-12-20T05:47:41.379Z,90.47
2022-12-20T05:48:41.329Z,90.37
2022-12-20T05:49:41.312Z,90.26
2022-12-20T05:50:41.323Z,90.37
2022-12-20T05:51:41.340Z,90.47
2022-12-20T05:52:41.279Z,90.47
2022-12-20T05:53:41.296Z,90.47
2022-12-20T05:54:41.270Z,90.47
2022-12-20T05:55:41.289Z,90.47
2022-12-20T05:56:41.335Z,90.68
2022-12-20T05:57:41.256Z,90.78
2022-12-20T05:58:41.261Z,90.89
2022-12-20T05:59:41.258Z,90.89
2022-12-20T06:00:41.209Z,91.30
2022-12-20T06:01:41.483Z,91.41
2022-12-20T06:02:41.437Z,91.51
2022-12-20T06:03:41.480Z,91.51
2022-12-20T06:04:41.155Z,91.51
2022-12-20T06:05:41.165Z,91.41
2022-12-20T06:06:41.207Z,91.41
2022-12-20T06:07:41.176Z,91.41
2022-12-20T06:08:41.129Z,91.41
2022-12-20T06:09:41.128Z,91.41
2022-12-20T06:10:41.102Z,91.41
2022-12-20T06:11:41.135Z,91.41
2022-12-20T06:12:41.080Z,91.51
2022-12-20T06:13:41.111Z,91.47
2022-12-20T06:14:41.061Z,91.47
2022-12-20T06:15:41.143Z,91.47
2022-12-20T06:16:41.128Z,91.57
2022-12-20T06:17:41.034Z,91.67
2022-12-20T06:18:41.019Z,91.57
2022-12-20T06:19:41.016Z,91.57
2022-12-20T06:20:41.004Z,91.57
2022-12-20T06:21:41.145Z,91.67
2022-12-20T06:22:40.965Z,91.47
2022-12-20T06:23:40.971Z,91.47
2022-12-20T06:24:47.692Z,91.47
2022-12-20T06:25:40.989Z,91.67
2022-12-20T06:26:40.986Z,91.67
2022-12-20T06:27:40.937Z,91.78
2022-12-20T06:28:40.902Z,91.99
2022-12-20T06:29:40.903Z,91.99
2022-12-20T06:30:40.918Z,92.19
2022-12-20T06:31:40.972Z,92.09
2022-12-20T06:32:40.882Z,92.19
2022-12-20T06:33:40.876Z,92.30
2022-12-20T06:34:40.876Z,92.30
2022-12-20T06:35:40.944Z,92.30
2022-12-20T06:36:40.842Z,92.30
2022-12-20T06:37:40.837Z,92.25
2022-12-20T06:38:40.854Z,92.36
2022-12-20T06:39:40.902Z,92.36
2022-12-20T06:40:40.781Z,92.57
2022-12-20T06:41:40.828Z,92.77
2022-12-20T06:42:40.791Z,93.08
2022-12-20T06:43:40.714Z,93.23
2022-12-20T06:44:40.801Z,93.39
2022-12-20T06:45:42.080Z,93.64
2022-12-20T06:46:40.772Z,93.74
2022-12-20T06:47:40.687Z,93.85
2022-12-20T06:48:40.676Z,94.01
2022-12-20T06:49:40.665Z,94.12
2022-12-20T06:50:40.671Z,94.12
2022-12-20T06:51:40.673Z,94.22
2022-12-20T06:52:40.614Z,94.53
2022-12-20T06:53:40.623Z,94.63
2022-12-20T06:54:40.596Z,94.63
2022-12-20T06:55:40.602Z,94.73
2022-12-20T06:56:41.644Z,94.73
2022-12-20T06:57:40.562Z,94.84
2022-12-20T06:58:40.565Z,94.94
2022-12-20T06:59:40.626Z,95.04
2022-12-20T07:00:40.618Z,95.15
2022-12-20T07:01:40.651Z,95.25
2022-12-20T07:02:40.693Z,95.36
2022-12-20T07:03:40.593Z,95.46
2022-12-20T07:04:40.576Z,95.46
2022-12-20T07:05:40.507Z,95.56
2022-12-20T07:06:40.477Z,95.67
2022-12-20T07:07:44.883Z,95.87
2022-12-20T07:08:40.485Z,95.98
2022-12-20T07:09:40.444Z,95.87
2022-12-20T07:10:40.473Z,96.19
2022-12-20T07:11:40.474Z,96.19
2022-12-20T07:12:47.194Z,96.29
2022-12-20T07:13:40.426Z,96.19
2022-12-20T07:14:40.450Z,96.19
2022-12-20T07:15:40.417Z,96.19
2022-12-20T07:16:40.426Z,96.29
2022-12-20T07:17:40.417Z,96.19
2022-12-20T07:18:40.422Z,96.19
2022-12-20T07:19:43.098Z,96.29
2022-12-20T07:20:40.363Z,96.19
2022-12-20T07:21:40.332Z,96.29
2022-12-20T07:22:40.362Z,96.29
2022-12-20T07:23:40.328Z,96.29
2022-12-20T07:24:40.285Z,96.39
2022-12-20T07:25:40.304Z,96.49
2022-12-20T07:26:40.279Z,96.49
2022-12-20T07:27:40.289Z,96.29
2022-12-20T07:28:40.249Z,96.49
2022-12-20T07:29:40.289Z,96.49
2022-12-20T07:30:40.236Z,96.59
2022-12-20T07:31:40.302Z,96.59
2022-12-20T07:32:40.244Z,96.59
2022-12-20T07:33:40.212Z,96.66
2022-12-20T07:34:40.233Z,96.66
2022-12-20T07:35:40.179Z,96.76
2022-12-20T07:36:40.181Z,96.76
2022-12-20T07:37:40.266Z,96.86
2022-12-20T07:38:40.152Z,96.97
2022-12-20T07:39:40.154Z,97.07
2022-12-20T07:40:40.126Z,97.07
2022-12-20T07:41:40.127Z,97.28
2022-12-20T07:42:46.208Z,97.38
2022-12-20T07:43:40.153Z,97.49
2022-12-20T07:44:40.079Z,97.59
2022-12-20T07:45:40.113Z,97.69
2022-12-20T07:46:40.142Z,97.79
2022-12-20T07:47:40.086Z,97.79
2022-12-20T07:48:40.066Z,97.89
2022-12-20T07:49:40.064Z,98.00
2022-12-20T07:50:40.034Z,98.00
2022-12-20T07:51:40.024Z,98.10
2022-12-20T07:52:40.157Z,98.31
2022-12-20T07:53:40.279Z,98.41
2022-12-20T07:54:40.395Z,98.52
2022-12-20T07:55:40.571Z,98.62
2022-12-20T07:56:41.585Z,98.62
2022-12-20T07:57:39.981Z,98.62
2022-12-20T07:58:39.947Z,98.72
2022-12-20T07:59:40.306Z,98.83
2022-12-20T08:00:40.104Z,98.83
2022-12-20T08:01:40.081Z,98.93
2022-12-20T08:02:40.244Z,99.04
2022-12-20T08:03:40.107Z,99.04
2022-12-20T08:04:39.883Z,99.04
2022-12-20T08:05:39.888Z,99.14
2022-12-20T08:06:39.869Z,99.14
2022-12-20T08:07:39.871Z,99.24
2022-12-20T08:08:39.872Z,99.34
2022-12-20T08:09:39.927Z,99.34
2022-12-20T08:10:39.847Z,99.34
2022-12-20T08:11:39.815Z,99.44
2022-12-20T08:12:39.844Z,99.44
2022-12-20T08:13:46.010Z,99.55
2022-12-20T08:14:39.805Z,99.55
2022-12-20T08:15:39.797Z,99.55
2022-12-20T08:16:39.782Z,99.65
2022-12-20T08:17:39.870Z,99.76
2022-12-20T08:18:39.745Z,99.86
2022-12-20T08:19:39.984Z,99.86
2022-12-20T08:20:39.720Z,99.96
2022-12-20T08:21:39.711Z,99.96
2022-12-20T08:22:39.770Z,99.96
2022-12-20T08:23:39.682Z,99.99
2022-12-20T08:24:39.700Z,99.99
2022-12-20T08:25:42.114Z,99.99
2022-12-20T08:26:39.689Z,99.99
2022-12-20T08:27:39.733Z,99.99
2022-12-20T08:28:39.653Z,99.99
2022-12-20T08:29:39.626Z,99.99
2022-12-20T08:30:39.644Z,99.99
2022-12-20T08:31:43.117Z,99.99
2022-12-20T08:32:39.647Z,99.99
2022-12-20T08:33:39.584Z,99.99
2022-12-20T08:34:39.614Z,99.99
2022-12-20T08:35:39.617Z,99.99
2022-12-20T08:36:39.588Z,99.99
2022-12-20T08:37:39.606Z,99.99
2022-12-20T08:38:39.548Z,99.99
2022-12-20T08:39:39.527Z,99.99
2022-12-20T08:40:39.507Z,99.99
2022-12-20T08:41:39.540Z,99.99
2022-12-20T08:42:39.648Z,99.99
2022-12-20T08:43:39.503Z,99.99
2022-12-20T08:44:39.466Z,99.99
2022-12-20T08:45:39.493Z,99.99
2022-12-20T08:46:39.526Z,99.99
2022-12-20T08:47:39.469Z,99.99
2022-12-20T08:48:39.440Z,99.99
2022-12-20T08:49:45.718Z,99.99
2022-12-20T08:50:39.444Z,99.99
2022-12-20T08:51:39.449Z,99.99
2022-12-20T08:52:39.403Z,99.99
2022-12-20T08:53:39.379Z,99.99
2022-12-20T08:54:39.377Z,99.99
2022-12-20T08:55:39.363Z,99.99
2022-12-20T08:56:39.365Z,99.99
2022-12-20T08:57:39.354Z,99.99
2022-12-20T08:58:39.339Z,99.99
2022-12-20T08:59:39.348Z,99.99
2022-12-20T09:00:45.390Z,99.99
2022-12-20T09:01:41.062Z,99.99
2022-12-20T09:02:42.771Z,99.99
2022-12-20T09:03:39.380Z,99.99
2022-12-20T09:04:39.271Z,99.99
2022-12-20T09:05:39.269Z,99.99
2022-12-20T09:06:39.249Z,99.99
2022-12-20T09:07:39.267Z,99.99
2022-12-20T09:08:39.248Z,99.99
2022-12-20T09:09:39.227Z,99.99
2022-12-20T09:10:39.223Z,99.99
2022-12-20T09:11:39.207Z,99.99
2022-12-20T09:12:39.194Z,99.99
2022-12-20T09:13:43.689Z,99.99
2022-12-20T09:14:39.175Z,99.99
2022-12-20T09:15:39.205Z,99.99
2022-12-20T09:16:39.133Z,99.99
2022-12-20T09:17:39.147Z,99.99
2022-12-20T09:18:39.134Z,99.99
2022-12-20T09:19:39.136Z,99.99
2022-12-20T09:20:39.110Z,99.99
2022-12-20T09:21:39.105Z,99.93
2022-12-20T09:22:39.125Z,99.82
2022-12-20T09:23:39.078Z,99.62
2022-12-20T09:24:39.095Z,99.62
2022-12-20T09:25:39.102Z,99.41
2022-12-20T09:26:39.052Z,99.16
2022-12-20T09:27:39.053Z,99.10
2022-12-20T09:28:39.037Z,99.16
2022-12-20T09:29:39.030Z,99.16
2022-12-20T09:30:39.077Z,99.16
2022-12-20T09:31:39.075Z,99.16
2022-12-20T09:32:38.992Z,99.06
2022-12-20T09:33:39.000Z,99.06
2022-12-20T09:34:38.984Z,99.06
2022-12-20T09:35:38.957Z,98.96
2022-12-20T09:36:38.952Z,98.85
2022-12-20T09:37:38.972Z,98.80
2022-12-20T09:38:38.931Z,98.39
2022-12-20T09:39:38.922Z,98.19
2022-12-20T09:40:38.906Z,98.19
2022-12-20T09:41:38.917Z,98.08
2022-12-20T09:42:38.918Z,98.08
2022-12-20T09:43:38.878Z,97.83
2022-12-20T09:44:38.876Z,97.83
2022-12-20T09:45:38.895Z,97.63
2022-12-20T09:46:38.901Z,97.31
2022-12-20T09:47:38.873Z,97.27
2022-12-20T09:48:38.840Z,96.96
2022-12-20T09:49:38.813Z,96.86
2022-12-20T09:50:38.826Z,96.66
2022-12-20T09:51:38.819Z,96.75
2022-12-20T09:52:38.913Z,96.75
2022-12-20T09:53:38.783Z,96.75
2022-12-20T09:54:38.788Z,96.34
2022-12-20T09:55:38.805Z,96.66
2022-12-20T09:56:38.793Z,96.75
2022-12-20T09:57:38.741Z,96.45
2022-12-20T09:58:38.741Z,96.34
2022-12-20T09:59:42.254Z,96.34
2022-12-20T10:00:38.723Z,96.34
2022-12-20T10:01:40.368Z,96.34
2022-12-20T10:03:38.760Z,96.03
2022-12-20T10:04:38.882Z,96.14
2022-12-20T10:05:41.523Z,96.34
2022-12-20T10:06:38.726Z,96.03
2022-12-20T10:07:38.636Z,95.83
2022-12-20T10:08:38.650Z,95.93
2022-12-20T10:09:38.595Z,95.83
2022-12-20T10:10:38.619Z,95.93
2022-12-20T10:11:43.507Z,95.93
2022-12-20T10:12:38.626Z,95.73
2022-12-20T10:13:38.568Z,95.93
2022-12-20T10:14:38.592Z,95.62
2022-12-20T10:15:38.641Z,95.42
2022-12-20T10:16:38.568Z,95.48
2022-12-20T10:17:38.546Z,95.37
2022-12-20T10:18:38.586Z,95.17
2022-12-20T10:19:38.506Z,94.76
2022-12-20T10:20:38.534Z,94.76
2022-12-20T10:21:38.490Z,94.24
2022-12-20T10:22:38.492Z,94.24
2022-12-20T10:23:38.481Z,94.45
2022-12-20T10:24:38.457Z,94.24
2022-12-20T10:25:38.493Z,94.13
2022-12-20T10:26:38.431Z,93.88
2022-12-20T10:27:38.465Z,93.62
2022-12-20T10:28:38.411Z,93.62
2022-12-20T10:29:38.413Z,93.79
2022-12-20T10:30:38.426Z,93.79
2022-12-20T10:31:38.449Z,93.31
2022-12-20T10:32:38.405Z,93.37
2022-12-20T10:33:38.375Z,93.58
2022-12-20T10:34:43.523Z,93.58
2022-12-20T10:35:38.347Z,93.27
2022-12-20T10:36:38.343Z,93.58
2022-12-20T10:37:41.333Z,93.27
2022-12-20T10:38:38.339Z,93.06
2022-12-20T10:39:38.304Z,93.16
2022-12-20T10:41:20.077Z,93.16
2022-12-20T10:41:38.295Z,93.16
2022-12-20T10:42:38.262Z,92.86
2022-12-20T10:43:38.282Z,93.16
2022-12-20T10:44:38.249Z,93.16
2022-12-20T10:45:38.266Z,93.06
2022-12-20T10:46:38.374Z,93.02
2022-12-20T10:47:38.232Z,92.71
2022-12-20T10:48:38.222Z,92.71
2022-12-20T10:49:38.198Z,92.61
2022-12-20T10:50:38.188Z,92.40
2022-12-20T10:51:38.168Z,92.05
2022-12-20T10:52:38.183Z,91.64
2022-12-20T10:53:38.213Z,91.74
2022-12-20T10:54:38.217Z,91.53
2022-12-20T10:55:38.168Z,91.02
2022-12-20T10:56:38.152Z,91.19
2022-12-20T10:57:38.105Z,90.72
2022-12-20T10:58:38.114Z,91.23
2022-12-20T10:59:38.109Z,90.61
2022-12-20T11:00:38.083Z,90.92
2022-12-20T11:01:38.163Z,91.13
2022-12-20T11:02:41.209Z,91.13
2022-12-20T11:03:38.212Z,91.13
2022-12-20T11:04:38.040Z,90.92
2022-12-20T11:05:38.017Z,90.61
2022-12-20T11:06:38.020Z,90.36
2022-12-20T11:07:38.027Z,90.16
2022-12-20T11:08:47.310Z,90.36
2022-12-20T11:09:37.993Z,90.06
2022-12-20T11:10:37.996Z,90.06
2022-12-20T11:11:37.968Z,90.16
2022-12-20T11:12:37.970Z,89.44
2022-12-20T11:13:37.969Z,89.75
2022-12-20T11:14:39.706Z,89.54
2022-12-20T11:15:38.010Z,89.85
2022-12-20T11:16:38.072Z,89.85
2022-12-20T11:17:37.894Z,89.54
2022-12-20T11:18:37.922Z,89.95
2022-12-20T11:19:37.902Z,89.69
2022-12-20T11:20:37.889Z,90.06
2022-12-20T11:21:37.903Z,90.09
2022-12-20T11:22:37.861Z,90.00
2022-12-20T11:23:37.863Z,89.95
2022-12-20T11:24:37.828Z,89.75
2022-12-20T11:25:37.883Z,89.85
2022-12-20T11:26:37.831Z,89.75
2022-12-20T11:27:37.813Z,89.69
2022-12-20T11:28:37.818Z,89.75
2022-12-20T11:29:37.790Z,89.75
2022-12-20T11:30:37.764Z,89.23
2022-12-20T11:31:37.785Z,89.03
2022-12-20T11:32:40.653Z,88.82
2022-12-20T11:33:37.785Z,88.92
2022-12-20T11:34:37.735Z,88.82
2022-12-20T11:35:37.726Z,88.82
2022-12-20T11:36:37.731Z,88.92
2022-12-20T11:37:37.704Z,88.82
2022-12-20T11:38:37.719Z,89.03
2022-12-20T11:39:37.682Z,89.03
2022-12-20T11:40:37.675Z,88.92
2022-12-20T11:41:37.653Z,88.62
2022-12-20T11:42:37.674Z,88.62
2022-12-20T11:43:54.502Z,88.10
2022-12-20T11:44:40.139Z,88.41
2022-12-20T11:45:37.640Z,88.51
2022-12-20T11:46:37.633Z,88.62
2022-12-20T11:47:37.589Z,88.37
2022-12-20T11:48:37.620Z,87.65
2022-12-20T11:49:37.568Z,88.68
2022-12-20T11:50:37.570Z,87.61
2022-12-20T11:51:37.549Z,86.95
2022-12-20T11:52:37.568Z,86.54
2022-12-20T11:53:37.555Z,85.41
2022-12-20T11:54:37.535Z,85.52
2022-12-20T11:55:37.503Z,85.62
2022-12-20T11:56:43.821Z,85.62
2022-12-20T11:57:55.223Z,86.07
2022-12-20T11:58:37.498Z,86.48
2022-12-20T11:59:37.457Z,86.38
2022-12-20T12:00:37.463Z,86.68
2022-12-20T12:01:37.560Z,86.99
2022-12-20T12:02:37.550Z,86.93
2022-12-20T12:03:37.443Z,87.45
2022-12-20T12:04:37.431Z,87.79
2022-12-20T12:05:37.476Z,87.90
2022-12-20T12:06:37.419Z,88.10
2022-12-20T12:07:37.399Z,88.10
2022-12-20T12:08:37.394Z,88.10
2022-12-20T12:09:37.375Z,88.31
2022-12-20T12:10:37.385Z,88.06
2022-12-20T12:12:05.672Z,87.96
2022-12-20T12:12:37.391Z,87.65
2022-12-20T12:13:37.333Z,87.75
2022-12-20T12:14:37.328Z,87.65
2022-12-20T12:15:37.308Z,87.85
2022-12-20T12:16:37.354Z,88.06
2022-12-20T12:17:37.301Z,87.85
2022-12-20T12:18:37.319Z,88.10
2022-12-20T12:19:37.335Z,88.31
2022-12-20T12:20:37.316Z,88.20
2022-12-20T12:21:37.231Z,88.37
2022-12-20T12:22:37.254Z,87.96
2022-12-20T12:23:37.231Z,87.85
2022-12-20T12:24:37.260Z,87.85
2022-12-20T12:25:37.250Z,87.55
2022-12-20T12:26:37.225Z,87.55
2022-12-20T12:27:37.184Z,87.45
2022-12-20T12:28:37.184Z,87.55
2022-12-20T12:29:37.181Z,87.34
2022-12-20T12:30:37.159Z,87.45
2022-12-20T12:31:37.210Z,87.65
2022-12-20T12:32:37.191Z,87.75
2022-12-20T12:33:38.891Z,87.85
2022-12-20T12:34:37.162Z,88.06
2022-12-20T12:35:37.091Z,87.96
2022-12-20T12:36:37.086Z,88.06
2022-12-20T12:37:37.078Z,87.85
2022-12-20T12:38:37.062Z,87.96
2022-12-20T12:39:37.099Z,88.17
2022-12-20T12:40:37.060Z,88.17
2022-12-20T12:41:37.041Z,88.06
2022-12-20T12:42:37.025Z,88.27
2022-12-20T12:43:37.017Z,88.27
2022-12-20T12:44:37.025Z,88.27
2022-12-20T12:45:37.075Z,88.37
2022-12-20T12:46:37.067Z,88.27
2022-12-20T12:47:36.966Z,88.37
2022-12-20T12:48:36.963Z,88.47
2022-12-20T12:49:36.964Z,88.27
2022-12-20T12:50:36.943Z,88.37
2022-12-20T12:51:36.931Z,88.27
2022-12-20T12:52:36.983Z,88.27
2022-12-20T12:53:36.914Z,88.47